Time;durP1;ratioP1;P1;durP2;ratioP2;P2;SDS_P1;SDS_P2;PMS_P1;PMS_P2;Temp;Humidity;BMP_temperature;BMP_pressure;BME280_temperature;BME280_humidity;BME280_pressure;Samples;Min_cycle;Max_cycle;Signal;HPM_P1;HPM_P2
2023/09/10 00:00:25;;;;;;;8.32;5.85;;;24.50;73.00;;;;;;5073698;28;20045;-62
2023/09/10 00:02:50;;;;;;;7.00;5.85;;;24.50;73.00;;;;;;5074433;28;20048;-62
2023/09/10 00:05:16;;;;;;;7.30;5.95;;;24.50;73.00;;;;;;5074505;28;20041;-63
2023/09/10 00:07:42;;;;;;;6.60;5.82;;;24.50;73.00;;;;;;5103880;28;20126;-63
2023/09/10 00:10:08;;;;;;;7.57;6.13;;;24.50;73.00;;;;;;5113732;28;20509;-63
2023/09/10 00:12:33;;;;;;;7.38;6.13;;;24.40;73.00;;;;;;5115008;28;20169;-63
2023/09/10 00:14:59;;;;;;;7.60;5.82;;;24.50;73.00;;;;;;5114209;28;20032;-63
2023/09/10 00:17:25;;;;;;;6.75;6.05;;;24.50;73.00;;;;;;5114646;28;20524;-63
2023/09/10 00:19:50;;;;;;;6.65;5.68;;;24.50;73.00;;;;;;5114624;28;20040;-63
2023/09/10 00:22:16;;;;;;;7.70;6.10;;;24.40;73.00;;;;;;5113364;28;20502;-63
2023/09/10 00:24:41;;;;;;;6.53;5.72;;;24.40;73.00;;;;;;5114572;28;20519;-63
2023/09/10 00:27:07;;;;;;;6.47;5.68;;;24.40;73.00;;;;;;5114940;28;20429;-62
2023/09/10 00:29:32;;;;;;;6.40;5.40;;;24.40;73.00;;;;;;5114037;28;20047;-63
2023/09/10 00:32:01;;;;;;;7.25;6.10;;;24.40;73.00;;;;;;5114624;28;20039;-63
2023/09/10 00:34:29;;;;;;;6.78;5.55;;;24.40;73.00;;;;;;5113918;28;20134;-62
2023/09/10 00:36:54;;;;;;;8.75;6.07;;;24.40;73.00;;;;;;5112645;28;20043;-63
2023/09/10 00:39:20;;;;;;;7.07;5.93;;;24.40;73.00;;;;;;5113479;28;20051;-62
2023/09/10 00:41:46;;;;;;;7.57;6.05;;;24.40;72.90;;;;;;5114463;28;20546;-62
2023/09/10 00:44:14;;;;;;;7.07;5.78;;;24.40;72.90;;;;;;5113924;28;20451;-62
2023/09/10 00:46:40;;;;;;;6.43;5.72;;;24.40;72.90;;;;;;5113899;28;20078;-63
2023/09/10 00:49:05;;;;;;;7.22;5.78;;;24.40;72.90;;;;;;5114310;28;20075;-62
2023/09/10 00:51:31;;;;;;;6.85;5.82;;;24.40;72.90;;;;;;5112639;28;20048;-62
2023/09/10 00:53:58;;;;;;;6.72;5.65;;;24.40;72.90;;;;;;5112303;28;20113;-63
2023/09/10 00:56:24;;;;;;;6.13;5.53;;;24.40;72.90;;;;;;5114001;28;20050;-63
2023/09/10 00:58:50;;;;;;;6.70;6.00;;;24.40;73.00;;;;;;5112579;28;20483;-62
2023/09/10 01:01:15;;;;;;;6.30;5.50;;;24.40;72.90;;;;;;5114258;28;20040;-63
2023/09/10 01:03:42;;;;;;;6.82;5.65;;;24.40;72.90;;;;;;5112910;28;20039;-63
2023/09/10 01:06:08;;;;;;;6.78;5.55;;;24.40;72.90;;;;;;5112344;28;20052;-63
2023/09/10 01:08:33;;;;;;;6.75;5.68;;;24.40;72.90;;;;;;5093558;28;20054;-63
2023/09/10 01:11:30;;;;;;;6.18;5.57;;;24.40;72.90;;;;;;5092879;28;20040;-63
2023/09/10 01:14:16;;;;;;;6.47;5.78;;;24.30;72.80;;;;;;5091758;28;20060;-62
2023/09/10 01:16:47;;;;;;;7.05;6.03;;;24.30;72.80;;;;;;5092980;28;20101;-63
2023/09/10 01:19:49;;;;;;;6.30;5.47;;;24.30;72.90;;;;;;5105617;28;20054;-63
2023/09/10 01:22:30;;;;;;;6.50;5.80;;;24.30;72.80;;;;;;5071713;28;20052;-63
2023/09/10 01:24:56;;;;;;;6.68;5.75;;;24.30;72.80;;;;;;5070983;28;20115;-63
2023/09/10 01:27:24;;;;;;;6.60;5.68;;;24.30;72.80;;;;;;5072929;28;20571;-63
2023/09/10 01:29:49;;;;;;;6.13;5.50;;;24.30;72.80;;;;;;5071027;28;20094;-63
2023/09/10 01:32:35;;;;;;;6.50;5.70;;;24.30;72.80;;;;;;5072192;28;20032;-64
2023/09/10 01:35:19;;;;;;;6.78;5.82;;;24.30;72.80;;;;;;5071657;28;20091;-63
2023/09/10 01:37:48;;;;;;;6.63;5.90;;;24.30;72.80;;;;;;5072462;28;20129;-63
2023/09/10 01:40:18;;;;;;;6.60;5.82;;;24.30;72.80;;;;;;5070880;28;20050;-63
2023/09/10 01:42:44;;;;;;;7.40;6.00;;;24.30;72.90;;;;;;5054410;28;20377;-63
2023/09/10 01:45:10;;;;;;;6.72;5.78;;;24.30;72.80;;;;;;5106586;28;20050;-63
2023/09/10 01:47:35;;;;;;;6.68;5.97;;;24.20;72.70;;;;;;5112308;28;20043;-63
2023/09/10 01:50:01;;;;;;;6.32;5.60;;;24.20;72.70;;;;;;5111953;28;20044;-62
2023/09/10 01:52:26;;;;;;;6.43;5.78;;;24.30;72.80;;;;;;5112095;28;20047;-63
2023/09/10 01:54:52;;;;;;;6.50;5.80;;;24.20;72.70;;;;;;5110921;28;20057;-63
2023/09/10 01:57:18;;;;;;;6.90;6.05;;;24.20;72.70;;;;;;5111660;28;20093;-63
2023/09/10 01:59:43;;;;;;;6.90;5.78;;;24.20;72.70;;;;;;5112410;28;20040;-63
2023/09/10 02:02:09;;;;;;;6.25;5.65;;;24.20;72.70;;;;;;5080527;28;20661;-63
2023/09/10 02:04:34;;;;;;;6.63;5.95;;;24.20;72.70;;;;;;5070319;28;20048;-63
2023/09/10 02:07:00;;;;;;;7.30;5.88;;;24.20;72.70;;;;;;5071495;28;20063;-63
2023/09/10 02:09:25;;;;;;;6.53;5.82;;;24.20;72.70;;;;;;5072514;28;20049;-63
2023/09/10 02:11:51;;;;;;;6.20;5.38;;;24.20;72.70;;;;;;5071141;28;20131;-62
2023/09/10 02:14:17;;;;;;;6.97;5.88;;;24.20;72.70;;;;;;5071830;28;20388;-63
2023/09/10 02:16:42;;;;;;;6.82;5.85;;;24.20;72.70;;;;;;5072274;28;20120;-63
2023/09/10 02:19:08;;;;;;;7.22;5.63;;;24.20;72.60;;;;;;5072601;28;20500;-62
2023/09/10 02:21:33;;;;;;;6.30;5.63;;;24.20;72.60;;;;;;5070161;28;20417;-63
2023/09/10 02:23:59;;;;;;;6.10;5.50;;;24.20;72.60;;;;;;5072084;28;20040;-63
2023/09/10 02:26:25;;;;;;;6.45;5.75;;;24.20;72.60;;;;;;5071018;28;20040;-62
2023/09/10 02:28:51;;;;;;;6.18;5.25;;;24.20;72.60;;;;;;5070939;28;20047;-62
2023/09/10 02:31:19;;;;;;;6.32;5.60;;;24.20;72.60;;;;;;5072433;28;20434;-62
2023/09/10 02:33:45;;;;;;;6.55;5.65;;;24.20;72.60;;;;;;5070391;28;20041;-63
2023/09/10 02:36:10;;;;;;;6.25;5.57;;;24.20;72.60;;;;;;5075404;28;20100;-62
2023/09/10 02:38:36;;;;;;;8.15;6.28;;;24.20;72.60;;;;;;5112331;28;20060;-62
2023/09/10 02:41:01;;;;;;;6.32;5.70;;;24.20;72.60;;;;;;5112372;28;20055;-63
2023/09/10 02:43:27;;;;;;;7.28;6.15;;;24.20;72.60;;;;;;5111875;28;20035;-62
2023/09/10 02:45:53;;;;;;;7.50;5.90;;;24.20;72.60;;;;;;5112564;28;20401;-63
2023/09/10 02:48:18;;;;;;;6.78;5.78;;;24.20;72.60;;;;;;5116687;28;20487;-63
2023/09/10 02:50:44;;;;;;;6.75;6.03;;;24.20;72.60;;;;;;5115635;28;20040;-63
2023/09/10 02:53:09;;;;;;;6.38;5.40;;;24.20;72.50;;;;;;5116854;28;20036;-63
2023/09/10 02:55:35;;;;;;;6.60;5.47;;;24.20;72.60;;;;;;5115120;28;20039;-63
2023/09/10 02:58:00;;;;;;;7.28;6.03;;;24.10;72.50;;;;;;5115756;28;20066;-63
2023/09/10 03:00:26;;;;;;;6.13;5.40;;;24.20;72.60;;;;;;5114537;28;20089;-62
2023/09/10 03:02:53;;;;;;;6.78;5.93;;;24.10;72.50;;;;;;5116162;28;20040;-62
2023/09/10 03:05:19;;;;;;;6.63;5.80;;;24.10;72.50;;;;;;5115697;27;20035;-62
2023/09/10 03:07:45;;;;;;;6.80;5.90;;;24.10;72.50;;;;;;5116270;28;20050;-62
2023/09/10 03:10:10;;;;;;;6.53;5.70;;;24.10;72.50;;;;;;5114314;28;20064;-62
2023/09/10 03:12:36;;;;;;;6.53;5.40;;;24.10;72.40;;;;;;5115959;28;20395;-62
2023/09/10 03:15:02;;;;;;;6.93;5.63;;;24.10;72.50;;;;;;5115092;28;20126;-63
2023/09/10 03:17:28;;;;;;;7.03;6.15;;;24.10;72.50;;;;;;5114002;28;20048;-62
2023/09/10 03:19:53;;;;;;;6.30;5.45;;;24.10;72.50;;;;;;5115782;28;20043;-62
2023/09/10 03:22:19;;;;;;;6.05;5.45;;;24.10;72.50;;;;;;5116207;28;20031;-62
2023/09/10 03:24:44;;;;;;;7.22;5.68;;;24.10;72.40;;;;;;5114927;28;20035;-63
2023/09/10 03:27:10;;;;;;;6.00;5.30;;;24.10;72.40;;;;;;5116173;28;20044;-62
2023/09/10 03:29:36;;;;;;;6.32;5.68;;;24.10;72.40;;;;;;5115770;28;20097;-62
2023/09/10 03:32:02;;;;;;;6.90;6.05;;;24.10;72.40;;;;;;5115220;28;20066;-62
2023/09/10 03:34:29;;;;;;;7.28;5.85;;;24.00;72.30;;;;;;5115575;28;20441;-63
2023/09/10 03:36:56;;;;;;;6.88;5.95;;;24.10;72.40;;;;;;5115324;28;20056;-63
2023/09/10 03:39:21;;;;;;;6.25;5.45;;;24.10;72.30;;;;;;5115237;28;20075;-62
2023/09/10 03:41:47;;;;;;;6.93;5.70;;;24.10;72.40;;;;;;5115390;28;20066;-63
2023/09/10 03:44:12;;;;;;;7.53;6.10;;;24.00;72.30;;;;;;5115826;28;20035;-62
2023/09/10 03:46:38;;;;;;;6.85;6.00;;;24.00;72.30;;;;;;5114507;28;20487;-63
2023/09/10 03:49:04;;;;;;;7.05;6.15;;;24.00;72.30;;;;;;5115429;28;20039;-63
2023/09/10 03:51:30;;;;;;;6.28;5.68;;;24.00;72.30;;;;;;5115909;28;20519;-63
2023/09/10 03:53:55;;;;;;;6.68;5.72;;;24.00;72.30;;;;;;5114532;28;20044;-62
2023/09/10 03:56:22;;;;;;;6.55;5.68;;;24.00;72.30;;;;;;5115401;28;20050;-63
2023/09/10 03:58:48;;;;;;;6.97;6.10;;;24.00;72.30;;;;;;5114119;28;20053;-62
2023/09/10 04:01:14;;;;;;;6.38;5.60;;;24.00;72.30;;;;;;5104210;28;20036;-62
2023/09/10 04:03:39;;;;;;;6.18;5.50;;;24.00;72.30;;;;;;5094189;28;20048;-63
2023/09/10 04:06:05;;;;;;;6.03;5.43;;;24.00;72.30;;;;;;5093696;28;20040;-63
2023/09/10 04:08:30;;;;;;;7.03;6.10;;;24.00;72.30;;;;;;5093942;28;20044;-63
2023/09/10 04:10:56;;;;;;;7.40;6.03;;;24.00;72.30;;;;;;5094437;28;20050;-63
2023/09/10 04:13:21;;;;;;;6.82;5.78;;;24.00;72.30;;;;;;5093929;28;20082;-63
2023/09/10 04:15:47;;;;;;;7.43;5.82;;;24.00;72.30;;;;;;5094018;28;20123;-63
2023/09/10 04:18:12;;;;;;;6.47;5.78;;;24.00;72.30;;;;;;5093749;28;20040;-63
2023/09/10 04:20:38;;;;;;;6.65;5.85;;;24.00;72.30;;;;;;5093291;28;20039;-63
2023/09/10 04:23:04;;;;;;;7.47;6.00;;;24.00;72.30;;;;;;5093532;28;20046;-62
2023/09/10 04:25:29;;;;;;;6.45;5.75;;;24.00;72.30;;;;;;5093104;28;20048;-62
2023/09/10 04:27:55;;;;;;;6.80;5.78;;;24.00;72.30;;;;;;5093213;28;20036;-62
2023/09/10 04:30:21;;;;;;;6.80;6.05;;;24.00;72.30;;;;;;5094022;28;20047;-63
2023/09/10 04:32:46;;;;;;;6.72;5.50;;;24.00;72.30;;;;;;5094101;28;20487;-62
2023/09/10 04:35:12;;;;;;;7.07;5.78;;;24.00;72.30;;;;;;5093381;28;20040;-62
2023/09/10 04:37:38;;;;;;;6.10;5.50;;;24.00;72.30;;;;;;5092300;28;20059;-63
2023/09/10 04:40:08;;;;;;;6.95;5.82;;;24.00;72.30;;;;;;5094208;28;20052;-63
2023/09/10 04:42:34;;;;;;;6.47;5.78;;;24.00;72.30;;;;;;5093244;28;20052;-62
2023/09/10 04:45:00;;;;;;;6.15;5.55;;;24.00;72.30;;;;;;5094032;28;20044;-63
2023/09/10 04:47:25;;;;;;;7.35;6.65;;;23.90;72.20;;;;;;5093249;28;20039;-63
2023/09/10 04:49:51;;;;;;;6.93;5.85;;;24.00;72.30;;;;;;5092658;28;20076;-63
2023/09/10 04:52:19;;;;;;;6.75;5.82;;;24.00;72.30;;;;;;5094266;28;20078;-63
2023/09/10 04:54:45;;;;;;;6.35;5.70;;;24.00;72.30;;;;;;5093475;28;20044;-62
2023/09/10 04:57:10;;;;;;;7.03;5.60;;;23.90;72.20;;;;;;5093101;28;20070;-62
2023/09/10 04:59:36;;;;;;;6.60;5.95;;;23.90;72.20;;;;;;5092345;28;20071;-63
2023/09/10 05:02:03;;;;;;;6.85;5.90;;;23.90;72.20;;;;;;5093849;28;20040;-63
2023/09/10 05:04:29;;;;;;;6.78;6.07;;;23.90;72.20;;;;;;5091195;28;20043;-58
2023/09/10 05:06:54;;;;;;;14.40;11.43;;;23.90;72.20;;;;;;5091654;28;20058;-60
2023/09/10 05:09:20;;;;;;;32.15;27.05;;;23.90;72.00;;;;;;5093457;28;20044;-60
2023/09/10 05:11:45;;;;;;;32.78;27.20;;;23.90;70.20;;;;;;5091329;28;20047;-60
2023/09/10 05:14:11;;;;;;;32.25;27.85;;;23.70;68.80;;;;;;5097538;28;20042;-56
2023/09/10 05:16:37;;;;;;;34.38;27.95;;;23.70;68.10;;;;;;5097075;28;20467;-57
2023/09/10 05:19:02;;;;;;;33.42;26.85;;;23.60;67.70;;;;;;5091030;28;20048;-57
2023/09/10 05:21:28;;;;;;;32.55;27.65;;;23.50;67.70;;;;;;5091854;28;20449;-57
2023/09/10 05:23:54;;;;;;;33.38;27.80;;;23.50;67.50;;;;;;5090801;28;20051;-57
2023/09/10 05:26:21;;;;;;;32.05;27.80;;;23.40;67.40;;;;;;5093104;28;20100;-60
2023/09/10 05:28:46;;;;;;;39.45;31.95;;;23.40;67.40;;;;;;5092780;28;20048;-60
2023/09/10 05:31:12;;;;;;;40.03;33.30;;;23.40;67.10;;;;;;5092611;28;20127;-57
2023/09/10 05:33:38;;;;;;;37.25;31.88;;;23.20;67.00;;;;;;5092649;28;20032;-57
2023/09/10 05:36:04;;;;;;;36.13;30.48;;;23.10;67.20;;;;;;5091989;28;20499;-57
2023/09/10 05:38:29;;;;;;;35.55;29.65;;;23.10;67.30;;;;;;5090049;28;20052;-58
2023/09/10 05:41:00;;;;;;;34.95;30.25;;;23.10;67.50;;;;;;5091769;28;20048;-58
2023/09/10 05:43:29;;;;;;;33.08;27.75;;;23.10;67.50;;;;;;5091603;28;20111;-56
2023/09/10 05:45:54;;;;;;;35.00;28.73;;;23.10;67.60;;;;;;5110375;28;20506;-57
2023/09/10 05:48:23;;;;;;;36.50;27.75;;;23.10;67.60;;;;;;5100827;28;20044;-57
2023/09/10 05:50:57;;;;;;;34.03;26.58;;;23.10;67.60;;;;;;5092920;28;20051;-57
2023/09/10 05:53:23;;;;;;;30.85;25.48;;;23.10;67.60;;;;;;5090991;28;20226;-57
2023/09/10 05:55:48;;;;;;;30.48;24.45;;;23.20;67.70;;;;;;5091307;28;20146;-57
2023/09/10 05:58:14;;;;;;;29.08;24.35;;;23.20;67.80;;;;;;5092462;28;20097;-57
2023/09/10 06:00:40;;;;;;;28.40;24.08;;;23.30;67.90;;;;;;5090346;28;20043;-57
2023/09/10 06:03:07;;;;;;;29.80;23.77;;;23.20;67.80;;;;;;5091170;28;20093;-57
2023/09/10 06:05:33;;;;;;;29.10;24.70;;;23.30;67.90;;;;;;5092659;28;20526;-56
2023/09/10 06:07:58;;;;;;;28.60;24.30;;;23.30;68.00;;;;;;5091794;28;20134;-57
2023/09/10 06:10:24;;;;;;;30.13;24.92;;;23.30;68.00;;;;;;5090878;28;20131;-57
2023/09/10 06:12:50;;;;;;;32.42;25.70;;;23.40;68.10;;;;;;5092188;28;20052;-57
2023/09/10 06:15:15;;;;;;;30.30;25.45;;;23.40;68.10;;;;;;5092125;28;20040;-57
2023/09/10 06:17:41;;;;;;;32.47;26.92;;;23.30;68.20;;;;;;5090752;28;20044;-58
2023/09/10 06:20:07;;;;;;;35.30;28.75;;;23.30;68.20;;;;;;5090689;28;20079;-57
2023/09/10 06:22:33;;;;;;;33.38;28.63;;;23.40;68.30;;;;;;5096526;28;20539;-58
2023/09/10 06:24:58;;;;;;;35.42;27.45;;;23.40;68.40;;;;;;5096925;28;20075;-57
2023/09/10 06:27:24;;;;;;;33.72;27.92;;;23.30;68.40;;;;;;5094417;28;20040;-57
2023/09/10 06:29:50;;;;;;;38.97;29.80;;;23.40;68.60;;;;;;5095202;28;20044;-57
2023/09/10 06:32:15;;;;;;;36.05;28.63;;;23.40;68.70;;;;;;5096528;28;20067;-57
2023/09/10 06:34:41;;;;;;;33.05;28.33;;;23.30;68.70;;;;;;5095528;28;20044;-57
2023/09/10 06:37:06;;;;;;;36.17;29.20;;;23.30;68.90;;;;;;5096557;28;20047;-57
2023/09/10 06:39:38;;;;;;;36.78;29.85;;;23.30;68.90;;;;;;5095912;28;20052;-57
2023/09/10 06:42:07;;;;;;;35.67;28.95;;;23.40;69.10;;;;;;5095849;28;20063;-57
2023/09/10 06:44:33;;;;;;;34.35;28.30;;;23.40;69.20;;;;;;5096416;28;20044;-57
2023/09/10 06:46:59;;;;;;;37.40;30.45;;;23.30;69.30;;;;;;5096396;28;20388;-57
2023/09/10 06:49:25;;;;;;;39.42;31.00;;;23.40;69.40;;;;;;5093905;28;20048;-57
2023/09/10 06:51:51;;;;;;;39.65;32.55;;;23.30;69.60;;;;;;5090877;28;20047;-57
2023/09/10 06:54:17;;;;;;;37.60;31.23;;;23.40;69.80;;;;;;5079292;28;20052;-57
2023/09/10 06:56:42;;;;;;;37.13;31.35;;;23.40;69.90;;;;;;5073664;28;20040;-57
2023/09/10 06:59:08;;;;;;;37.58;30.88;;;23.30;70.00;;;;;;5076032;28;20124;-57
2023/09/10 07:01:37;;;;;;;38.55;31.23;;;23.40;70.10;;;;;;5074416;28;20059;-57
2023/09/10 07:04:15;;;;;;;37.33;31.50;;;23.40;70.30;;;;;;5074737;28;20127;-57
2023/09/10 07:06:40;;;;;;;38.58;30.30;;;23.40;70.30;;;;;;5073289;28;20044;-57
2023/09/10 07:09:06;;;;;;;35.90;30.73;;;23.40;70.40;;;;;;5072657;28;20425;-59
2023/09/10 07:11:31;;;;;;;35.92;29.08;;;23.40;70.40;;;;;;5074961;28;20039;-57
2023/09/10 07:13:57;;;;;;;36.22;29.60;;;23.40;70.50;;;;;;5073168;28;20412;-57
2023/09/10 07:16:23;;;;;;;35.88;29.95;;;23.40;70.60;;;;;;5073430;28;20349;-57
2023/09/10 07:18:48;;;;;;;34.03;29.33;;;23.40;70.60;;;;;;5074889;28;20036;-57
2023/09/10 07:21:14;;;;;;;35.47;29.75;;;23.40;70.70;;;;;;5073918;28;20375;-58
2023/09/10 07:23:39;;;;;;;35.83;28.17;;;23.40;70.70;;;;;;5074497;28;20040;-58
2023/09/10 07:26:05;;;;;;;33.78;27.58;;;23.40;70.80;;;;;;5073970;28;20048;-58
2023/09/10 07:28:31;;;;;;;34.72;28.75;;;23.40;70.80;;;;;;5075163;28;20116;-57
2023/09/10 07:30:56;;;;;;;34.28;27.23;;;23.40;70.80;;;;;;5074379;28;20122;-58
2023/09/10 07:33:22;;;;;;;29.48;25.55;;;23.40;70.80;;;;;;5074916;28;20039;-58
2023/09/10 07:35:47;;;;;;;30.90;26.08;;;23.40;70.80;;;;;;5074961;28;20040;-58
2023/09/10 07:38:13;;;;;;;30.85;25.13;;;23.40;70.80;;;;;;5073868;28;20052;-57
2023/09/10 07:40:38;;;;;;;31.52;24.77;;;23.40;70.80;;;;;;5074864;28;20072;-58
2023/09/10 07:43:05;;;;;;;27.88;24.05;;;23.40;70.80;;;;;;5075266;28;20462;-58
2023/09/10 07:45:31;;;;;;;28.20;23.15;;;23.40;70.80;;;;;;5074162;28;20534;-58
2023/09/10 07:47:57;;;;;;;29.73;24.13;;;23.40;70.80;;;;;;5074413;28;20052;-58
2023/09/10 07:50:22;;;;;;;30.65;23.63;;;23.50;70.80;;;;;;5073427;28;20082;-58
2023/09/10 07:52:48;;;;;;;25.23;21.25;;;23.50;70.80;;;;;;5072340;28;20037;-57
2023/09/10 07:55:13;;;;;;;27.13;20.75;;;23.50;70.80;;;;;;5074330;28;20036;-58
2023/09/10 07:57:39;;;;;;;23.10;19.88;;;23.50;70.80;;;;;;5074375;28;20051;-56
2023/09/10 08:00:06;;;;;;;24.33;20.05;;;23.50;70.90;;;;;;5072673;28;20392;-57
2023/09/10 08:02:34;;;;;;;23.15;19.95;;;23.50;70.80;;;;;;5074622;28;20043;-57
2023/09/10 08:05:00;;;;;;;23.65;20.27;;;23.60;70.80;;;;;;5074386;28;20048;-57
2023/09/10 08:07:26;;;;;;;25.83;20.75;;;23.60;70.90;;;;;;5073928;28;20491;-57
2023/09/10 08:09:51;;;;;;;23.73;20.60;;;23.60;70.90;;;;;;5074464;28;20124;-57
2023/09/10 08:12:17;;;;;;;22.83;18.42;;;23.60;70.90;;;;;;5074552;28;20435;-57
2023/09/10 08:14:42;;;;;;;21.95;17.38;;;23.70;71.00;;;;;;5073477;28;20047;-57
2023/09/10 08:17:08;;;;;;;19.90;16.40;;;23.70;70.90;;;;;;5074592;28;20124;-58
2023/09/10 08:19:33;;;;;;;20.02;16.77;;;23.70;71.40;;;;;;5073396;28;20128;-58
2023/09/10 08:21:59;;;;;;;18.85;15.98;;;23.70;70.80;;;;;;5074637;28;20115;-58
2023/09/10 08:24:25;;;;;;;17.88;14.88;;;23.70;70.60;;;;;;5073467;28;20048;-58
2023/09/10 08:26:51;;;;;;;19.58;15.15;;;23.70;70.60;;;;;;5072790;28;20036;-57
2023/09/10 08:29:17;;;;;;;19.58;13.93;;;23.70;70.50;;;;;;5074349;28;20040;-57
2023/09/10 08:31:42;;;;;;;19.08;13.40;;;23.70;70.30;;;;;;5073912;28;20401;-58
2023/09/10 08:34:08;;;;;;;16.42;12.52;;;23.70;70.20;;;;;;5071981;28;20041;-57
2023/09/10 08:36:36;;;;;;;20.95;14.10;;;23.80;70.20;;;;;;5073344;28;20059;-58
2023/09/10 08:39:02;;;;;;;18.85;13.02;;;23.80;70.20;;;;;;5072711;28;20495;-57
2023/09/10 08:41:27;;;;;;;28.60;14.10;;;23.70;70.20;;;;;;5073421;28;20049;-57
2023/09/10 08:43:57;;;;;;;31.08;14.85;;;23.70;70.20;;;;;;5072995;28;20420;-57
2023/09/10 08:46:30;;;;;;;41.53;15.82;;;23.80;70.30;;;;;;5073560;28;20498;-58
2023/09/10 08:48:59;;;;;;;34.60;15.48;;;23.80;70.30;;;;;;5072405;28;20049;-57
2023/09/10 08:51:24;;;;;;;33.63;14.48;;;23.80;70.30;;;;;;5077187;28;20046;-57
2023/09/10 08:53:52;;;;;;;28.50;14.20;;;23.80;70.30;;;;;;5094249;28;20036;-57
2023/09/10 08:56:18;;;;;;;28.67;14.68;;;23.90;70.40;;;;;;5082049;28;20070;-56
2023/09/10 08:58:45;;;;;;;28.00;13.02;;;23.90;70.40;;;;;;5083345;28;20032;-56
2023/09/10 09:01:10;;;;;;;25.27;13.68;;;23.90;70.30;;;;;;5084012;28;20048;-56
2023/09/10 09:03:36;;;;;;;23.90;13.73;;;23.90;70.40;;;;;;5065739;28;20127;-56
2023/09/10 09:06:03;;;;;;;25.25;14.00;;;23.90;70.50;;;;;;5066316;28;20060;-56
2023/09/10 09:08:32;;;;;;;24.10;12.48;;;23.90;70.50;;;;;;5093366;28;20028;-58
2023/09/10 09:11:00;;;;;;;21.67;13.90;;;23.90;70.50;;;;;;5092003;28;20515;-58
2023/09/10 09:13:26;;;;;;;22.27;13.43;;;23.90;70.60;;;;;;5083874;28;20145;-60
2023/09/10 09:15:52;;;;;;;15.25;12.23;;;23.90;70.60;;;;;;5057271;28;20052;-59
2023/09/10 09:18:17;;;;;;;17.95;12.63;;;24.00;70.70;;;;;;5066436;28;20044;-60
2023/09/10 09:20:44;;;;;;;21.70;13.55;;;24.00;70.80;;;;;;5085870;28;20044;-58
2023/09/10 09:23:16;;;;;;;18.85;13.00;;;24.00;70.80;;;;;;5091165;28;20135;-56
2023/09/10 09:25:41;;;;;;;20.63;13.98;;;24.00;70.90;;;;;;5093002;28;20040;-61
2023/09/10 09:28:09;;;;;;;17.20;13.40;;;24.00;70.90;;;;;;5071647;28;20089;-56
2023/09/10 09:30:35;;;;;;;24.05;13.60;;;24.00;70.90;;;;;;5066699;28;20056;-58
2023/09/10 09:33:01;;;;;;;16.73;13.07;;;24.00;70.90;;;;;;5081785;28;20032;-58
2023/09/10 09:35:26;;;;;;;17.15;14.10;;;24.00;71.00;;;;;;5090712;28;20036;-58
2023/09/10 09:37:52;;;;;;;18.25;14.05;;;24.00;71.20;;;;;;5086337;28;20048;-58
2023/09/10 09:40:21;;;;;;;19.60;13.60;;;24.00;71.30;;;;;;5087730;28;20080;-58
2023/09/10 09:42:47;;;;;;;17.40;13.32;;;24.10;71.40;;;;;;5074909;28;20354;-58
2023/09/10 09:45:12;;;;;;;17.40;13.93;;;24.10;71.50;;;;;;5070713;28;20500;-58
2023/09/10 09:47:38;;;;;;;17.83;13.25;;;24.10;71.40;;;;;;5072180;28;20040;-58
2023/09/10 09:50:07;;;;;;;16.20;13.30;;;24.10;71.40;;;;;;5072530;28;20070;-58
2023/09/10 09:52:32;;;;;;;18.10;13.55;;;24.10;71.30;;;;;;5070928;28;20051;-58
2023/09/10 09:54:58;;;;;;;17.10;14.07;;;24.10;71.30;;;;;;5071904;28;20036;-58
2023/09/10 09:57:24;;;;;;;17.27;12.93;;;24.10;71.30;;;;;;5072100;28;20041;-58
2023/09/10 09:59:49;;;;;;;16.15;13.60;;;24.20;71.40;;;;;;5071529;28;20055;-58
2023/09/10 10:02:16;;;;;;;15.10;12.18;;;24.20;71.40;;;;;;5072163;28;20043;-58
2023/09/10 10:04:44;;;;;;;15.63;13.15;;;24.20;71.40;;;;;;5072503;28;20048;-58
2023/09/10 10:07:14;;;;;;;14.20;12.60;;;24.20;71.40;;;;;;5053715;28;20439;-58
2023/09/10 10:09:40;;;;;;;14.20;12.32;;;24.20;71.40;;;;;;5072142;28;20098;-65
2023/09/10 10:12:07;;;;;;;13.63;12.05;;;24.20;71.40;;;;;;5075903;28;20078;-65
2023/09/10 10:14:33;;;;;;;15.88;12.68;;;24.20;71.50;;;;;;5080232;28;20039;-66
2023/09/10 10:17:03;;;;;;;13.48;11.95;;;24.20;71.50;;;;;;5084082;28;20040;-65
2023/09/10 10:19:30;;;;;;;14.68;11.85;;;24.20;71.50;;;;;;5077356;28;20079;-66
2023/09/10 10:21:56;;;;;;;13.25;11.88;;;24.20;71.50;;;;;;5082793;28;20044;-64
2023/09/10 10:24:21;;;;;;;15.10;11.63;;;24.20;71.60;;;;;;5083577;28;20032;-64
2023/09/10 10:26:48;;;;;;;14.32;10.95;;;24.20;71.60;;;;;;5082620;28;20452;-66
2023/09/10 10:29:14;;;;;;;15.43;10.68;;;24.30;71.70;;;;;;5081738;28;20047;-64
2023/09/10 10:31:39;;;;;;;14.88;11.70;;;24.20;71.60;;;;;;5077861;28;20036;-65
2023/09/10 10:34:24;;;;;;;12.57;11.07;;;24.30;71.70;;;;;;5084845;28;20395;-64
2023/09/10 10:37:13;;;;;;;12.43;10.13;;;24.30;71.80;;;;;;5080678;28;20052;-65
2023/09/10 10:39:42;;;;;;;14.52;10.65;;;24.30;71.80;;;;;;5087005;28;20094;-63
2023/09/10 10:42:09;;;;;;;12.02;9.60;;;24.30;71.90;;;;;;5080045;28;20526;-64
2023/09/10 10:44:35;;;;;;;12.75;10.20;;;24.30;72.00;;;;;;5078505;28;20133;-65
2023/09/10 10:47:21;;;;;;;13.48;10.40;;;24.30;72.00;;;;;;5088610;28;20119;-64
2023/09/10 10:49:54;;;;;;;14.68;10.05;;;24.30;72.00;;;;;;5091624;28;20048;-64
2023/09/10 10:52:22;;;;;;;10.77;9.38;;;24.40;72.00;;;;;;5092004;28;20090;-64
2023/09/10 10:54:48;;;;;;;13.07;10.18;;;24.40;72.00;;;;;;5090390;28;20078;-65
2023/09/10 10:57:14;;;;;;;13.35;9.90;;;24.40;72.00;;;;;;5074144;28;20539;-63
2023/09/10 10:59:40;;;;;;;12.45;10.05;;;24.30;71.90;;;;;;5073583;28;20104;-65
2023/09/10 11:02:09;;;;;;;11.52;8.95;;;24.40;72.00;;;;;;5089836;28;20403;-64
2023/09/10 11:04:38;;;;;;;10.63;9.20;;;24.40;72.10;;;;;;5091804;28;20127;-65
2023/09/10 11:07:17;;;;;;;11.43;8.95;;;24.40;72.00;;;;;;5093436;28;20043;-64
2023/09/10 11:09:43;;;;;;;10.68;9.57;;;24.40;72.00;;;;;;5114091;28;20047;-63
2023/09/10 11:12:09;;;;;;;10.98;9.52;;;24.40;72.00;;;;;;5097948;28;20044;-66
2023/09/10 11:14:59;;;;;;;12.38;9.60;;;24.40;72.00;;;;;;5114265;28;20047;-67
2023/09/10 11:17:29;;;;;;;12.18;9.35;;;24.50;72.10;;;;;;5102018;28;20050;-67
2023/09/10 11:19:55;;;;;;;12.18;9.30;;;24.40;72.10;;;;;;5094997;28;20051;-67
2023/09/10 11:22:21;;;;;;;10.95;9.10;;;24.40;72.20;;;;;;5099739;28;20040;-66
2023/09/10 11:25:07;;;;;;;12.27;9.73;;;24.40;72.20;;;;;;5093867;28;20036;-66
2023/09/10 11:27:36;;;;;;;13.07;9.45;;;24.50;72.30;;;;;;5093908;28;20147;-66
2023/09/10 11:30:07;;;;;;;11.38;9.30;;;24.50;72.30;;;;;;5094865;28;20123;-66
2023/09/10 11:32:32;;;;;;;11.35;8.70;;;24.50;72.40;;;;;;5095361;28;20471;-66
2023/09/10 11:35:17;;;;;;;11.15;9.05;;;24.40;72.30;;;;;;5094142;28;20096;-66
2023/09/10 11:37:47;;;;;;;11.98;9.30;;;24.40;72.30;;;;;;5092657;28;20052;-66
2023/09/10 11:40:13;;;;;;;10.15;8.48;;;24.50;72.40;;;;;;5094260;28;20074;-66
2023/09/10 11:42:42;;;;;;;12.65;8.90;;;24.50;72.40;;;;;;5110155;28;20048;-66
2023/09/10 11:45:09;;;;;;;11.27;8.60;;;24.50;72.40;;;;;;5106894;28;20126;-66
2023/09/10 11:47:44;;;;;;;10.45;8.77;;;24.50;72.50;;;;;;5111056;28;20052;-67
2023/09/10 11:50:10;;;;;;;10.85;8.55;;;24.50;72.50;;;;;;5094765;28;20040;-66
2023/09/10 11:52:36;;;;;;;10.02;8.75;;;24.50;72.50;;;;;;5091448;28;20043;-66
2023/09/10 11:55:03;;;;;;;13.07;9.05;;;24.50;72.60;;;;;;5076696;28;20054;-66
2023/09/10 11:57:29;;;;;;;11.30;8.90;;;24.50;72.70;;;;;;5093423;28;20048;-65
2023/09/10 11:59:55;;;;;;;11.75;8.63;;;24.50;72.70;;;;;;5094207;28;20048;-66
2023/09/10 12:02:21;;;;;;;9.35;8.45;;;24.50;72.80;;;;;;5092670;28;20070;-66
2023/09/10 12:04:46;;;;;;;10.82;9.07;;;24.50;72.80;;;;;;5092436;28;20040;-65
2023/09/10 12:07:18;;;;;;;10.88;8.70;;;24.60;72.80;;;;;;5094716;28;20116;-65
2023/09/10 12:09:47;;;;;;;11.07;9.07;;;24.60;72.90;;;;;;5093106;28;20055;-67
2023/09/10 12:12:19;;;;;;;9.85;8.57;;;24.60;72.90;;;;;;5092678;28;20093;-66
2023/09/10 12:14:44;;;;;;;10.52;8.65;;;24.60;73.00;;;;;;5093188;28;20040;-66
2023/09/10 12:17:10;;;;;;;11.18;8.77;;;24.60;73.00;;;;;;5076505;28;20032;-67
2023/09/10 12:19:35;;;;;;;11.73;8.95;;;24.60;73.00;;;;;;5091396;28;20463;-65
2023/09/10 12:22:03;;;;;;;10.75;8.88;;;24.60;73.00;;;;;;5075980;28;20044;-65
2023/09/10 12:24:29;;;;;;;10.55;8.80;;;24.60;73.00;;;;;;5076559;28;20143;-66
2023/09/10 12:26:54;;;;;;;10.45;8.63;;;24.60;73.00;;;;;;5071860;28;20116;-66
2023/09/10 12:29:20;;;;;;;10.93;7.85;;;24.60;73.00;;;;;;5072907;28;20404;-66
2023/09/10 12:31:45;;;;;;;8.90;7.57;;;24.70;73.00;;;;;;5059130;28;20040;-66
2023/09/10 12:34:14;;;;;;;10.10;8.05;;;24.70;73.00;;;;;;5072650;28;20040;-65